createdAt,value
2022-12-01T00:01:07.449Z,3.31
2022-12-01T00:03:34.154Z,3.31
2022-12-01T00:06:05.763Z,3.20
2022-12-01T00:08:33.303Z,3.41
2022-12-01T00:11:11.506Z,3.21
2022-12-01T00:13:38.125Z,3.29
2022-12-01T00:16:14.933Z,3.49
2022-12-01T00:18:42.229Z,3.45
2022-12-01T00:21:16.328Z,3.41
2022-12-01T00:23:47.580Z,3.47
2022-12-01T00:26:18.392Z,3.41
2022-12-01T00:28:49.423Z,3.22
2022-12-01T00:31:16.047Z,3.32
2022-12-01T00:33:42.607Z,3.28
2022-12-01T00:36:09.668Z,3.30
2022-12-01T00:38:36.414Z,3.34
2022-12-01T00:41:03.472Z,3.39
2022-12-01T00:43:30.030Z,3.30
2022-12-01T00:45:56.677Z,3.51
2022-12-01T00:48:23.308Z,3.51
2022-12-01T00:50:53.480Z,3.55
2022-12-01T00:53:20.208Z,3.45
2022-12-01T00:55:46.719Z,3.42
2022-12-01T00:58:13.235Z,3.44
2022-12-01T01:00:39.757Z,3.30
2022-12-01T01:03:07.306Z,3.36
2022-12-01T01:05:42.257Z,3.32
2022-12-01T01:08:10.635Z,3.24
2022-12-01T01:10:45.980Z,3.26
2022-12-01T01:13:13.910Z,3.25
2022-12-01T01:15:41.100Z,3.14
2022-12-01T01:18:07.743Z,3.18
2022-12-01T01:20:34.257Z,3.21
2022-12-01T01:23:00.796Z,3.23
2022-12-01T01:25:27.319Z,3.24
2022-12-01T01:27:53.937Z,3.27
2022-12-01T01:30:21.082Z,3.22
2022-12-01T01:32:47.744Z,3.15
2022-12-01T01:35:14.243Z,3.18
2022-12-01T01:37:40.747Z,3.17
2022-12-01T01:40:07.847Z,3.09
2022-12-01T01:42:34.345Z,3.04
2022-12-01T01:45:00.846Z,3.06
2022-12-01T01:47:33.366Z,3.02
2022-12-01T01:50:03.659Z,2.97
2022-12-01T01:52:30.181Z,2.90
2022-12-01T01:54:56.778Z,2.95
2022-12-01T01:57:28.003Z,2.90
2022-12-01T01:59:59.095Z,2.98
2022-12-01T02:02:25.784Z,3.04
2022-12-01T02:04:56.866Z,3.04
2022-12-01T02:07:23.853Z,3.06
2022-12-01T02:09:50.602Z,3.13
2022-12-01T02:12:38.488Z,3.11
2022-12-01T02:15:23.467Z,3.02
2022-12-01T02:18:03.429Z,3.08
2022-12-01T02:20:43.729Z,3.07
2022-12-01T02:23:20.342Z,3.11
2022-12-01T02:26:14.293Z,3.19
2022-12-01T02:28:57.741Z,3.08
2022-12-01T02:31:44.137Z,3.03
2022-12-01T02:34:24.341Z,3.20
2022-12-01T02:36:58.708Z,3.20
2022-12-01T02:39:29.491Z,3.34
2022-12-01T02:42:04.478Z,3.36
2022-12-01T02:44:37.669Z,3.32
2022-12-01T02:47:10.460Z,3.36
2022-12-01T02:49:41.462Z,3.37
2022-12-01T02:52:08.773Z,3.31
2022-12-01T02:54:35.629Z,3.27
2022-12-01T02:57:02.142Z,3.22
2022-12-01T02:59:28.673Z,3.26
2022-12-01T03:02:06.424Z,3.36
2022-12-01T03:04:42.025Z,3.34
2022-12-01T03:07:42.578Z,3.41
2022-12-01T03:10:09.085Z,3.38
2022-12-01T03:12:37.462Z,3.39
2022-12-01T03:15:18.610Z,3.22
2022-12-01T03:18:01.982Z,3.29
2022-12-01T03:20:39.587Z,3.30
2022-12-01T03:23:09.680Z,3.35
2022-12-01T03:25:38.190Z,3.31
2022-12-01T03:28:21.958Z,3.32
2022-12-01T03:30:51.000Z,3.35
2022-12-01T03:33:24.780Z,3.36
2022-12-01T03:36:00.783Z,3.38
2022-12-01T03:38:28.464Z,3.47
2022-12-01T03:41:08.174Z,3.42
2022-12-01T03:43:38.887Z,3.54
2022-12-01T03:46:46.117Z,3.46
2022-12-01T03:49:14.129Z,3.29
2022-12-01T03:51:48.198Z,3.32
2022-12-01T03:54:53.055Z,3.38
2022-12-01T03:57:37.868Z,3.42
2022-12-01T04:00:05.887Z,3.56
2022-12-01T04:02:32.599Z,3.55
2022-12-01T04:04:59.219Z,3.55
2022-12-01T04:07:25.777Z,3.56
2022-12-01T04:09:52.331Z,3.61
2022-12-01T04:12:18.958Z,3.63
2022-12-01T04:14:58.000Z,3.57
2022-12-01T04:17:25.743Z,3.59
2022-12-01T04:19:52.703Z,3.49
2022-12-01T04:22:19.880Z,3.49
2022-12-01T04:24:46.405Z,3.52
2022-12-01T04:27:13.254Z,3.69
2022-12-01T04:29:39.779Z,3.66
2022-12-01T04:32:06.446Z,3.66
2022-12-01T04:34:33.266Z,3.64
2022-12-01T04:36:59.750Z,3.41
2022-12-01T04:39:26.274Z,3.47
2022-12-01T04:41:53.091Z,3.49
2022-12-01T04:44:19.691Z,3.35
2022-12-01T04:46:46.359Z,3.46
2022-12-01T04:49:12.955Z,3.38
2022-12-01T04:51:39.626Z,3.30
2022-12-01T04:54:06.129Z,3.39
2022-12-01T04:56:32.849Z,3.33
2022-12-01T04:58:59.435Z,3.31
2022-12-01T05:01:26.052Z,3.14
2022-12-01T05:03:52.715Z,3.21
2022-12-01T05:06:21.795Z,3.22
2022-12-01T05:08:48.795Z,3.11
2022-12-01T05:11:15.922Z,3.18
2022-12-01T05:13:44.439Z,3.32
2022-12-01T05:16:16.648Z,3.21
2022-12-01T05:18:43.855Z,3.23
2022-12-01T05:21:11.120Z,3.23
2022-12-01T05:23:38.213Z,3.15
2022-12-01T05:26:09.048Z,3.10
2022-12-01T05:28:36.143Z,3.13
2022-12-01T05:31:03.216Z,3.26
2022-12-01T05:33:30.422Z,3.20
2022-12-01T05:35:57.006Z,3.13
2022-12-01T05:38:23.662Z,3.17
2022-12-01T05:40:51.414Z,3.18
2022-12-01T05:43:18.367Z,3.29
2022-12-01T05:45:44.950Z,3.28
2022-12-01T05:48:11.497Z,3.40
2022-12-01T05:50:39.102Z,3.50
2022-12-01T05:53:06.642Z,3.37
2022-12-01T05:55:34.563Z,3.36
2022-12-01T05:58:01.625Z,3.41
2022-12-01T06:00:28.696Z,3.29
2022-12-01T06:02:55.485Z,3.26
2022-12-01T06:05:21.994Z,3.21
2022-12-01T06:07:48.689Z,3.17
2022-12-01T06:10:15.777Z,3.33
2022-12-01T06:12:42.306Z,3.26
2022-12-01T06:15:10.655Z,3.26
2022-12-01T06:17:40.453Z,3.28
2022-12-01T06:20:08.373Z,3.23
2022-12-01T06:22:34.871Z,3.22
2022-12-01T06:25:01.487Z,3.17
2022-12-01T06:27:28.103Z,3.25
2022-12-01T06:29:54.696Z,3.27
2022-12-01T06:32:21.229Z,3.38
2022-12-01T06:34:47.747Z,3.42
2022-12-01T06:37:14.260Z,3.40
2022-12-01T06:39:41.082Z,3.26
2022-12-01T06:42:07.573Z,3.31
2022-12-01T06:44:34.346Z,3.37
2022-12-01T06:47:00.861Z,3.30
2022-12-01T06:49:27.342Z,3.23
2022-12-01T06:51:53.848Z,3.20
2022-12-01T06:54:20.447Z,3.19
2022-12-01T06:56:46.958Z,3.16
2022-12-01T06:59:16.066Z,3.13
2022-12-01T07:01:43.284Z,3.13
2022-12-01T07:04:09.810Z,3.03
2022-12-01T07:06:36.449Z,3.10
2022-12-01T07:09:02.945Z,3.13
2022-12-01T07:11:29.459Z,3.22
2022-12-01T07:13:56.017Z,3.22
2022-12-01T07:16:22.723Z,3.22
2022-12-01T07:18:49.264Z,3.20
2022-12-01T07:21:15.903Z,3.28
2022-12-01T07:23:43.346Z,3.29
2022-12-01T07:26:15.373Z,3.29
2022-12-01T07:28:43.557Z,3.41
2022-12-01T07:31:16.452Z,3.32
2022-12-01T07:33:49.664Z,3.30
2022-12-01T07:36:16.204Z,3.32
2022-12-01T07:38:42.794Z,3.54
2022-12-01T07:41:11.301Z,3.58
2022-12-01T07:43:38.364Z,3.38
2022-12-01T07:46:07.848Z,3.35
2022-12-01T07:48:35.443Z,3.38
2022-12-01T07:51:02.240Z,3.35
2022-12-01T07:53:28.799Z,3.43
2022-12-01T07:55:55.485Z,3.56
2022-12-01T07:58:22.059Z,3.49
2022-12-01T08:00:48.572Z,3.58
2022-12-01T08:03:15.147Z,3.71
2022-12-01T08:05:41.651Z,3.83
2022-12-01T08:08:08.307Z,3.77
2022-12-01T08:10:35.147Z,3.85
2022-12-01T08:13:01.625Z,3.88
2022-12-01T08:15:28.405Z,3.79
2022-12-01T08:17:55.051Z,3.84
2022-12-01T08:20:24.068Z,3.87
2022-12-01T08:22:50.813Z,3.78
2022-12-01T08:25:17.344Z,3.77
2022-12-01T08:27:44.037Z,3.87
2022-12-01T08:30:10.941Z,3.85
2022-12-01T08:32:37.494Z,3.77
2022-12-01T08:35:04.250Z,3.75
2022-12-01T08:37:30.826Z,3.93
2022-12-01T08:39:57.306Z,4.00
2022-12-01T08:42:24.082Z,4.10
2022-12-01T08:44:53.851Z,4.24
2022-12-01T08:47:22.036Z,4.24
2022-12-01T08:49:48.787Z,4.17
2022-12-01T08:52:15.391Z,4.26
2022-12-01T08:54:41.931Z,4.25
2022-12-01T08:57:08.458Z,4.15
2022-12-01T08:59:35.050Z,4.23
2022-12-01T09:02:06.806Z,4.29
2022-12-01T09:04:33.834Z,4.39
2022-12-01T09:07:00.325Z,4.44
2022-12-01T09:09:28.783Z,4.48
2022-12-01T09:11:55.899Z,4.42
2022-12-01T09:14:23.144Z,4.29
2022-12-01T09:16:50.548Z,4.34
2022-12-01T09:19:24.035Z,4.32
2022-12-01T09:21:51.762Z,4.51
2022-12-01T09:24:18.398Z,4.50
2022-12-01T09:26:44.929Z,4.61
2022-12-01T09:29:13.683Z,4.66
2022-12-01T09:31:40.888Z,4.62
2022-12-01T09:34:12.213Z,4.63
2022-12-01T09:36:39.004Z,4.71
2022-12-01T09:39:07.240Z,4.59
2022-12-01T09:41:49.121Z,4.55
2022-12-01T09:44:23.135Z,4.45
2022-12-01T09:46:54.796Z,4.39
2022-12-01T09:49:30.364Z,4.29
2022-12-01T09:51:59.800Z,4.38
2022-12-01T09:54:28.721Z,4.38
2022-12-01T09:56:55.617Z,4.45
2022-12-01T09:59:24.929Z,4.57
2022-12-01T10:01:55.325Z,4.46
2022-12-01T10:04:27.750Z,4.54
2022-12-01T10:07:18.287Z,4.46
2022-12-01T10:09:48.598Z,4.61
2022-12-01T10:12:18.176Z,4.80
2022-12-01T10:14:48.643Z,5.04
2022-12-01T10:17:27.852Z,5.14
2022-12-01T10:20:23.549Z,5.36
2022-12-01T10:23:12.737Z,5.47
2022-12-01T10:25:56.311Z,5.27
2022-12-01T10:28:34.775Z,5.21
2022-12-01T10:31:14.287Z,5.09
2022-12-01T10:33:51.365Z,5.30
2022-12-01T10:36:17.934Z,5.38
2022-12-01T10:38:44.626Z,5.70
2022-12-01T10:41:14.578Z,5.78
2022-12-01T10:43:44.723Z,5.47
2022-12-01T10:46:40.444Z,5.65
2022-12-01T10:49:09.731Z,5.58
2022-12-01T10:51:57.054Z,5.51
2022-12-01T10:54:32.765Z,5.57
2022-12-01T10:56:59.732Z,5.63
2022-12-01T10:59:33.326Z,5.81
2022-12-01T11:02:01.368Z,5.66
2022-12-01T11:04:43.734Z,5.59
2022-12-01T11:07:16.350Z,5.71
2022-12-01T11:09:45.405Z,5.63
2022-12-01T11:12:16.923Z,5.60
2022-12-01T11:14:50.895Z,5.36
2022-12-01T11:17:40.688Z,5.32
2022-12-01T11:20:32.209Z,5.38
2022-12-01T11:23:20.413Z,5.48
2022-12-01T11:26:15.517Z,5.72
2022-12-01T11:28:54.930Z,5.97
2022-12-01T11:31:24.360Z,6.28
2022-12-01T11:33:55.262Z,5.89
2022-12-01T11:36:30.701Z,5.81
2022-12-01T11:39:01.627Z,5.49
2022-12-01T11:41:32.940Z,5.56
2022-12-01T11:44:02.173Z,5.62
2022-12-01T11:46:36.345Z,6.00
2022-12-01T11:49:03.811Z,6.10
2022-12-01T11:51:32.636Z,5.67
2022-12-01T11:54:11.485Z,5.56
2022-12-01T11:56:38.197Z,5.64
2022-12-01T11:59:17.546Z,5.72
2022-12-01T12:01:47.038Z,5.71
2022-12-01T12:04:29.650Z,5.96
2022-12-01T12:07:21.121Z,5.86
2022-12-01T12:10:11.014Z,5.75
2022-12-01T12:12:50.084Z,5.84
2022-12-01T12:16:04.891Z,5.98
2022-12-01T12:18:59.090Z,6.01
2022-12-01T12:21:38.537Z,5.91
2022-12-01T12:24:21.165Z,5.88
2022-12-01T12:26:56.550Z,5.93
2022-12-01T12:29:38.709Z,5.54
2022-12-01T12:32:14.379Z,5.70
2022-12-01T12:34:49.046Z,5.81
2022-12-01T12:37:24.990Z,5.88
2022-12-01T12:40:26.946Z,6.26
2022-12-01T12:43:34.853Z,6.31
2022-12-01T12:46:04.519Z,5.94
2022-12-01T12:49:18.786Z,5.78
2022-12-01T12:51:54.608Z,5.73
2022-12-01T12:54:32.505Z,5.71
2022-12-01T12:57:03.323Z,6.19
2022-12-01T12:59:47.038Z,6.18
2022-12-01T13:02:32.171Z,6.02
2022-12-01T13:05:02.947Z,5.78
2022-12-01T13:07:34.208Z,5.65
2022-12-01T13:10:09.240Z,5.56
2022-12-01T13:12:40.418Z,5.55
2022-12-01T13:15:15.615Z,5.67
2022-12-01T13:17:45.657Z,5.86
2022-12-01T13:20:17.943Z,5.81
2022-12-01T13:22:45.222Z,5.87
2022-12-01T13:25:25.601Z,6.22
2022-12-01T13:27:51.995Z,6.15
2022-12-01T13:30:24.233Z,6.16
2022-12-01T13:32:58.552Z,6.25
2022-12-01T13:35:31.780Z,6.19
2022-12-01T13:38:32.036Z,5.90
2022-12-01T13:41:36.538Z,6.14
2022-12-01T13:44:08.598Z,6.27
2022-12-01T13:46:44.206Z,6.31
2022-12-01T13:49:33.535Z,6.04
2022-12-01T13:52:21.652Z,6.10
2022-12-01T13:55:07.067Z,6.13
2022-12-01T13:57:36.223Z,6.04
2022-12-01T14:00:02.937Z,6.12
2022-12-01T14:02:38.520Z,6.23
2022-12-01T14:05:40.765Z,6.21
2022-12-01T14:08:24.396Z,6.27
2022-12-01T14:10:54.135Z,6.48
2022-12-01T14:13:21.298Z,6.03
2022-12-01T14:15:55.177Z,6.05
2022-12-01T14:18:21.633Z,6.05
2022-12-01T14:20:48.760Z,5.98
2022-12-01T14:24:02.063Z,6.05
2022-12-01T14:26:31.063Z,5.65
2022-12-01T14:29:09.506Z,5.49
2022-12-01T14:31:36.465Z,5.51
2022-12-01T14:34:23.345Z,5.57
2022-12-01T14:37:14.038Z,5.45
2022-12-01T14:39:45.043Z,5.63
2022-12-01T14:42:11.514Z,5.71
2022-12-01T14:44:44.650Z,5.52
2022-12-01T14:47:11.089Z,5.78
2022-12-01T14:49:42.345Z,5.65
2022-12-01T14:52:26.400Z,5.25
2022-12-01T14:54:55.442Z,5.16
2022-12-01T14:57:25.889Z,5.02
2022-12-01T15:00:04.483Z,4.89
2022-12-01T15:02:31.135Z,4.90
2022-12-01T15:05:15.774Z,4.80
2022-12-01T15:07:46.084Z,5.04
2022-12-01T15:10:20.137Z,4.97
2022-12-01T15:12:47.591Z,5.01
2022-12-01T15:15:23.683Z,4.82
2022-12-01T15:17:52.098Z,4.78
2022-12-01T15:20:36.996Z,4.71
2022-12-01T15:23:14.390Z,4.52
2022-12-01T15:25:45.116Z,4.58
2022-12-01T15:28:32.775Z,4.61
2022-12-01T15:31:00.472Z,4.76
2022-12-01T15:33:36.585Z,4.70
2022-12-01T15:36:04.278Z,4.55
2022-12-01T15:38:35.852Z,4.67
2022-12-01T15:43:56.217Z,4.94
2022-12-01T15:46:31.550Z,4.90
2022-12-01T15:49:09.100Z,4.73
2022-12-01T15:51:35.826Z,4.91
2022-12-01T15:54:02.874Z,4.71
2022-12-01T15:56:38.237Z,4.74
2022-12-01T15:59:13.986Z,4.59
2022-12-01T16:01:42.265Z,4.49
2022-12-01T16:04:29.669Z,4.53
2022-12-01T16:07:05.884Z,4.41
2022-12-01T16:09:38.430Z,4.61
2022-12-01T16:12:16.909Z,4.58
2022-12-01T16:15:01.398Z,4.41
2022-12-01T16:17:42.048Z,4.35
2022-12-01T16:20:18.974Z,4.35
2022-12-01T16:22:47.337Z,4.46
2022-12-01T16:25:28.673Z,4.51
2022-12-01T16:27:56.639Z,4.58
2022-12-01T16:30:26.047Z,4.58
2022-12-01T16:33:00.875Z,4.44
2022-12-01T16:35:29.606Z,4.43
2022-12-01T16:37:57.333Z,4.64
2022-12-01T16:40:24.838Z,4.57
2022-12-01T16:42:51.550Z,4.31
2022-12-01T16:45:19.010Z,4.24
2022-12-01T16:47:46.983Z,4.13
2022-12-01T16:50:18.197Z,4.19
2022-12-01T16:52:45.542Z,4.26
2022-12-01T16:55:24.505Z,4.07
2022-12-01T16:57:51.196Z,4.08
2022-12-01T17:00:18.070Z,4.02
2022-12-01T17:02:44.753Z,4.02
2022-12-01T17:05:11.558Z,4.01
2022-12-01T17:07:38.342Z,4.00
2022-12-01T17:10:07.720Z,4.02
2022-12-01T17:12:34.238Z,4.21
2022-12-01T17:15:00.774Z,4.08
2022-12-01T17:17:28.786Z,4.04
2022-12-01T17:19:55.618Z,4.17
2022-12-01T17:22:22.162Z,4.06
2022-12-01T17:24:49.173Z,4.05
2022-12-01T17:27:16.091Z,4.20
2022-12-01T17:29:46.042Z,4.02
2022-12-01T17:32:13.351Z,4.03
2022-12-01T17:34:39.943Z,3.92
2022-12-01T17:37:06.655Z,3.98
2022-12-01T17:39:33.246Z,4.01
2022-12-01T17:41:59.804Z,3.94
2022-12-01T17:44:26.348Z,3.89
2022-12-01T17:46:52.945Z,3.89
2022-12-01T17:49:19.585Z,3.90
2022-12-01T17:51:46.173Z,3.98
2022-12-01T17:54:12.803Z,3.81
2022-12-01T17:56:39.338Z,3.82
2022-12-01T17:59:05.932Z,3.79
2022-12-01T18:01:32.700Z,3.88
2022-12-01T18:03:59.319Z,3.90
2022-12-01T18:06:26.208Z,3.85
2022-12-01T18:08:53.110Z,3.90
2022-12-01T18:11:19.845Z,3.97
2022-12-01T18:13:48.469Z,3.96
2022-12-01T18:16:18.413Z,3.93
2022-12-01T18:18:45.779Z,3.94
2022-12-01T18:21:13.963Z,3.87
2022-12-01T18:23:40.889Z,4.08
2022-12-01T18:26:15.735Z,4.10
2022-12-01T18:28:43.261Z,4.10
2022-12-01T18:31:12.869Z,4.06
2022-12-01T18:33:41.600Z,4.02
2022-12-01T18:36:13.874Z,3.86
2022-12-01T18:38:41.078Z,3.80
2022-12-01T18:41:08.082Z,3.81
2022-12-01T18:43:34.822Z,3.86
2022-12-01T18:46:03.313Z,3.88
2022-12-01T18:48:37.875Z,3.92
2022-12-01T18:51:05.993Z,3.94
2022-12-01T18:53:35.064Z,3.92
2022-12-01T18:56:03.339Z,3.94
2022-12-01T18:58:57.923Z,4.04
2022-12-01T19:01:36.035Z,4.12
2022-12-01T19:04:03.094Z,4.13
2022-12-01T19:06:30.077Z,3.97
2022-12-01T19:08:59.542Z,4.09
2022-12-01T19:11:26.083Z,3.93
2022-12-01T19:13:52.559Z,3.98
2022-12-01T19:16:19.805Z,3.98
2022-12-01T19:18:46.695Z,3.89
2022-12-01T19:21:16.017Z,3.82
2022-12-01T19:23:43.078Z,3.88
2022-12-01T19:26:15.541Z,3.94
2022-12-01T19:28:42.411Z,3.95
2022-12-01T19:31:10.668Z,3.92
2022-12-01T19:33:37.208Z,3.81
2022-12-01T19:36:09.309Z,3.81
2022-12-01T19:38:36.022Z,3.89
2022-12-01T19:41:03.395Z,3.90
2022-12-01T19:43:29.957Z,3.94
2022-12-01T19:45:56.545Z,4.08
2022-12-01T19:48:23.217Z,4.08
2022-12-01T19:50:49.758Z,4.00
2022-12-01T19:53:16.293Z,3.96
2022-12-01T19:55:43.056Z,3.97
2022-12-01T19:58:09.569Z,3.92
2022-12-01T20:00:36.251Z,3.89
2022-12-01T20:03:02.804Z,4.06
2022-12-01T20:05:29.378Z,3.93
2022-12-01T20:07:56.006Z,4.07
2022-12-01T20:10:22.560Z,4.04
2022-12-01T20:12:50.014Z,4.12
2022-12-01T20:15:16.982Z,3.99
2022-12-01T20:17:43.690Z,3.93
2022-12-01T20:20:11.627Z,4.00
2022-12-01T20:22:38.365Z,4.06
2022-12-01T20:25:05.728Z,3.97
2022-12-01T20:27:32.589Z,4.05
2022-12-01T20:29:59.237Z,3.96
2022-12-01T20:32:25.864Z,3.99
2022-12-01T20:34:55.206Z,3.95
2022-12-01T20:37:25.472Z,3.81
2022-12-01T20:39:52.160Z,3.83
2022-12-01T20:42:18.645Z,3.81
2022-12-01T20:44:45.146Z,3.82
2022-12-01T20:47:14.214Z,3.73
2022-12-01T20:49:40.805Z,3.81
2022-12-01T20:52:07.407Z,3.89
2022-12-01T20:54:33.995Z,3.89
2022-12-01T20:57:00.541Z,3.92
2022-12-01T20:59:27.979Z,3.85
2022-12-01T21:01:54.815Z,3.95
2022-12-01T21:04:21.376Z,3.85
2022-12-01T21:06:47.940Z,3.95
2022-12-01T21:09:14.445Z,3.85
2022-12-01T21:11:49.670Z,3.77
2022-12-01T21:14:20.065Z,3.79
2022-12-01T21:16:47.654Z,3.80
2022-12-01T21:19:18.201Z,3.75
2022-12-01T21:21:44.693Z,3.83
2022-12-01T21:24:14.451Z,3.88
2022-12-01T21:26:42.909Z,3.90
2022-12-01T21:29:23.682Z,4.12
2022-12-01T21:31:53.340Z,3.99
2022-12-01T21:34:27.936Z,3.89
2022-12-01T21:36:56.465Z,3.91
2022-12-01T21:39:25.004Z,3.86
2022-12-01T21:41:55.425Z,3.80
2022-12-01T21:44:23.162Z,3.74
2022-12-01T21:46:56.525Z,3.72
2022-12-01T21:49:32.645Z,3.80
2022-12-01T21:51:59.183Z,3.83
2022-12-01T21:54:25.695Z,3.81
2022-12-01T21:56:55.106Z,4.00
2022-12-01T21:59:22.989Z,4.02
2022-12-01T22:01:53.924Z,3.94
2022-12-01T22:04:30.645Z,3.95
2022-12-01T22:06:57.925Z,4.14
2022-12-01T22:09:31.254Z,4.22
2022-12-01T22:12:01.951Z,4.03
2022-12-01T22:14:37.831Z,3.99
2022-12-01T22:17:07.332Z,3.96
2022-12-01T22:19:37.101Z,3.92
2022-12-01T22:22:23.379Z,3.93
2022-12-01T22:24:52.675Z,3.85
2022-12-01T22:27:28.947Z,3.86
2022-12-01T22:30:05.826Z,3.93
2022-12-01T22:32:35.247Z,3.98
2022-12-01T22:35:17.745Z,3.97
2022-12-01T22:37:46.421Z,3.87
2022-12-01T22:41:01.877Z,3.98
2022-12-01T22:43:48.493Z,3.90
2022-12-01T22:46:27.242Z,3.92
2022-12-01T22:48:56.660Z,3.88
2022-12-01T22:51:30.795Z,4.00
2022-12-01T22:54:00.587Z,3.96
2022-12-01T22:56:39.853Z,4.06
2022-12-01T22:59:16.672Z,4.13
2022-12-01T23:01:59.841Z,4.12
2022-12-01T23:04:51.278Z,4.04
2022-12-01T23:07:35.248Z,4.08
2022-12-01T23:10:16.722Z,3.95
2022-12-01T23:12:45.117Z,4.04
2022-12-01T23:15:33.738Z,4.23
2022-12-01T23:18:29.447Z,4.11
2022-12-01T23:21:05.138Z,4.12
2022-12-01T23:23:36.936Z,4.22
2022-12-01T23:26:08.569Z,4.10
2022-12-01T23:28:35.958Z,4.12
2022-12-01T23:31:02.732Z,4.19
2022-12-01T23:33:31.790Z,4.21
2022-12-01T23:36:09.001Z,4.33
2022-12-01T23:38:42.525Z,4.30
2022-12-01T23:41:25.868Z,4.12
2022-12-01T23:43:54.231Z,4.15
2022-12-01T23:46:23.563Z,4.16
2022-12-01T23:48:59.339Z,4.28
2022-12-01T23:51:40.322Z,4.26
2022-12-01T23:54:17.651Z,4.22
2022-12-01T23:56:54.735Z,4.33
2022-12-01T23:59:32.222Z,4.39
